Terminal Aerodrome Forecast
Issued by NWS

Home | Current Version | Previous Version | Text Only | Print | Product List | Glossary Off
Versions: 1 2 3 4 5 6 7 8 9 10 11 12 13 14 15 16 17 18

000
FTUS43 KABR 252324
TAFATY
TAF
KATY 252324Z 2600/2624 02010KT P6SM BKN015
      TEMPO 2600/2602 SCT015
     FM260600 VRB04KT P6SM OVC015
      TEMPO 2608/2612 4SM BR
     FM261700 02008KT 5SM BR BKN250=

USA.gov is the U.S. government's official web portal to all federal, state and local government web resources and services.